Time;durP1;ratioP1;P1;durP2;ratioP2;P2;SDS_P1;SDS_P2;PMS_P1;PMS_P2;Temp;Humidity;BMP_temperature;BMP_pressure;BME280_temperature;BME280_humidity;BME280_pressure;Samples;Min_cycle;Max_cycle;Signal;HPM_P1;HPM_P2
2023/02/12 00:01:36;;;;;;;49.95;23.65;;;;;;;-0.80;48.82;100500.16;5089936;28;20422;-71
2023/02/12 00:04:02;;;;;;;42.40;22.55;;;;;;;-0.62;47.83;100503.91;5090113;28;20085;-71
2023/02/12 00:06:28;;;;;;;29.33;16.10;;;;;;;-1.16;48.90;100500.00;5091292;28;20132;-71
2023/02/12 00:08:56;;;;;;;30.48;16.40;;;;;;;-0.91;48.85;100498.22;5090946;28;20021;-71
2023/02/12 00:11:24;;;;;;;27.10;13.60;;;;;;;-1.13;49.12;100502.31;5086664;28;20119;-71
2023/02/12 00:13:50;;;;;;;31.65;14.77;;;;;;;-1.00;48.83;100500.47;5111571;28;20429;-71
2023/02/12 00:16:20;;;;;;;38.20;19.92;;;;;;;-0.81;48.78;100489.41;5100076;28;20098;-71
2023/02/12 00:18:46;;;;;;;;;;;;;;;-1.22;49.70;100494.59;5091743;28;20051;-71
2023/02/12 00:21:16;;;;;;;60.72;26.05;;;;;;;-1.39;50.40;100483.41;5089778;28;19943;-72
2023/02/12 00:23:42;;;;;;;60.88;28.50;;;;;;;-1.23;50.22;100488.28;5093742;28;20409;-71
2023/02/12 00:26:10;;;;;;;47.65;22.70;;;;;;;-1.14;49.87;100486.06;5096335;28;20024;-71
2023/02/12 00:28:36;;;;;;;58.00;26.58;;;;;;;-1.21;50.50;100485.28;5093776;28;20031;-71
2023/02/12 00:31:09;;;;;;;48.15;20.98;;;;;;;-1.28;50.40;100488.13;5094673;28;20028;-71
2023/02/12 00:33:34;;;;;;;31.65;16.05;;;;;;;-1.16;49.44;100480.78;5093500;28;20023;-71
2023/02/12 00:36:00;;;;;;;25.35;13.63;;;;;;;-1.05;48.80;100473.69;5095173;28;20380;-71
2023/02/12 00:38:26;;;;;;;24.17;12.65;;;;;;;-0.81;47.49;100479.25;5096349;28;20098;-72
2023/02/12 00:40:51;;;;;;;27.08;12.77;;;;;;;-1.04;48.11;100477.25;5115211;28;20037;-71
2023/02/12 00:43:17;;;;;;;30.83;13.27;;;;;;;-1.09;48.44;100479.88;5115269;28;20027;-71
2023/02/12 00:45:46;;;;;;;26.83;13.45;;;;;;;-1.16;47.62;100458.81;5115277;28;20129;-71
2023/02/12 00:48:12;;;;;;;25.30;12.98;;;;;;;-0.94;47.15;100460.22;5115165;28;20379;-71
2023/02/12 00:50:39;;;;;;;24.10;11.65;;;;;;;-1.02;47.10;100451.25;5115164;28;20058;-71
2023/02/12 00:53:05;;;;;;;19.55;10.88;;;;;;;-0.86;46.42;100447.00;5100787;28;20024;-71
2023/02/12 00:55:32;;;;;;;21.92;12.02;;;;;;;-0.70;46.19;100447.38;5114774;28;20501;-71
2023/02/12 00:57:58;;;;;;;23.08;12.15;;;;;;;-0.72;45.78;100444.88;5101330;28;20147;-71
2023/02/12 01:00:24;;;;;;;21.88;10.63;;;;;;;-0.55;45.29;100448.81;5093275;28;20453;-71
2023/02/12 01:02:49;;;;;;;23.15;10.85;;;;;;;-0.59;44.61;100440.25;5113652;28;20038;-71
2023/02/12 01:05:15;;;;;;;21.38;11.30;;;;;;;-0.54;44.61;100434.84;5113521;28;20023;-71
2023/02/12 01:07:40;;;;;;;20.73;11.98;;;;;;;-0.39;44.73;100441.78;5093278;28;20149;-71
2023/02/12 01:10:07;;;;;;;25.60;12.20;;;;;;;-0.44;44.53;100446.09;5093242;28;20048;-71
2023/02/12 01:12:32;;;;;;;20.55;11.05;;;;;;;-0.32;44.56;100429.59;5092999;28;20450;-71
2023/02/12 01:14:58;;;;;;;22.45;12.45;;;;;;;-0.16;44.27;100438.22;5093160;28;20027;-71
2023/02/12 01:17:24;;;;;;;24.60;12.50;;;;;;;-0.31;44.64;100434.03;5094619;28;20055;-71
2023/02/12 01:19:49;;;;;;;24.90;13.82;;;;;;;-0.31;44.97;100425.78;5094066;28;20478;-71
2023/02/12 01:22:15;;;;;;;23.80;12.60;;;;;;;-0.35;44.97;100427.34;5095004;28;20020;-71
2023/02/12 01:24:41;;;;;;;23.65;11.80;;;;;;;-0.27;45.13;100433.56;5104964;28;20082;-71
2023/02/12 01:27:06;;;;;;;32.42;13.48;;;;;;;-0.49;45.77;100425.91;5092892;28;20031;-71
2023/02/12 01:29:32;;;;;;;44.85;20.58;;;;;;;-0.83;47.67;100428.34;5094041;28;20020;-71
2023/02/12 01:31:57;;;;;;;43.72;19.70;;;;;;;-0.92;47.84;100425.13;5094116;28;20028;-71
2023/02/12 01:34:23;;;;;;;33.13;15.13;;;;;;;-0.93;47.29;100413.28;5093767;28;20410;-71
2023/02/12 01:36:48;;;;;;;25.27;13.40;;;;;;;-0.76;46.58;100427.19;5093783;28;20115;-71
2023/02/12 01:39:14;;;;;;;23.52;13.23;;;;;;;-0.74;46.70;100422.28;5092682;28;20489;-71
2023/02/12 01:41:43;;;;;;;21.77;11.70;;;;;;;-0.78;46.36;100412.84;5104203;28;20024;-71
2023/02/12 01:44:13;;;;;;;23.45;13.02;;;;;;;-0.71;46.09;100412.72;5110271;28;20027;-71
2023/02/12 01:46:39;;;;;;;18.35;10.70;;;;;;;-0.55;45.75;100413.09;5093786;28;20024;-71
2023/02/12 01:49:32;;;;;;;21.10;10.85;;;;;;;-0.44;45.17;100402.13;5093341;28;20027;-71
2023/02/12 01:52:03;;;;;;;25.65;12.23;;;;;;;-0.34;45.14;100386.94;5097908;28;20047;-71
2023/02/12 01:54:30;;;;;;;18.00;10.30;;;;;;;-0.31;45.16;100380.97;5110491;28;20471;-71
2023/02/12 01:56:56;;;;;;;19.02;10.38;;;;;;;-0.58;44.91;100385.03;5112354;28;20513;-72
2023/02/12 01:59:23;;;;;;;19.10;10.70;;;;;;;-0.65;44.83;100377.97;5091886;28;20020;-71
2023/02/12 02:01:48;;;;;;;22.25;10.82;;;;;;;-0.77;44.27;100391.72;5093886;28;20028;-71
2023/02/12 02:04:18;;;;;;;19.40;10.95;;;;;;;-0.55;43.95;100386.47;5093160;28;20024;-71
2023/02/12 02:06:51;;;;;;;20.58;10.48;;;;;;;-0.47;43.02;100388.00;5093319;28;20028;-71
2023/02/12 02:09:18;;;;;;;16.65;8.93;;;;;;;-0.48;42.42;100372.59;5103936;28;20197;-71
2023/02/12 02:14:31;;;;;;;18.30;9.32;;;;;;;-0.56;42.64;100382.03;5113657;28;20192;-71
2023/02/12 02:17:15;;;;;;;16.33;9.18;;;;;;;-0.44;42.64;100379.28;5113603;28;20027;-71
2023/02/12 02:20:26;;;;;;;16.92;9.70;;;;;;;-0.21;41.70;100389.44;5112537;28;20501;-71
2023/02/12 02:23:22;;;;;;;21.02;10.88;;;;;;;0.03;41.22;100396.81;5092666;28;20548;-71
2023/02/12 02:25:50;;;;;;;21.63;10.45;;;;;;;0.09;41.62;100382.94;5093021;28;20051;-71
2023/02/12 02:28:29;;;;;;;18.50;10.07;;;;;;;0.07;41.95;100389.78;5091302;28;20487;-71
2023/02/12 02:30:55;;;;;;;21.13;12.00;;;;;;;0.07;42.06;100390.59;5091552;28;20055;-71
2023/02/12 02:33:54;;;;;;;21.00;11.13;;;;;;;0.11;41.76;100380.75;5091486;28;20118;-71
2023/02/12 02:36:44;;;;;;;28.45;12.68;;;;;;;0.14;42.55;100387.72;5072596;28;20115;-71
2023/02/12 02:39:18;;;;;;;24.38;11.95;;;;;;;0.15;42.14;100392.13;5101083;28;20391;-71
2023/02/12 02:41:49;;;;;;;19.52;11.50;;;;;;;0.28;42.29;100388.28;5113174;28;20108;-71
2023/02/12 02:44:41;;;;;;;27.73;13.40;;;;;;;0.24;42.68;100390.66;5111677;28;20111;-71
2023/02/12 02:47:11;;;;;;;24.02;14.00;;;;;;;0.21;42.47;100379.31;5110362;28;20394;-71
2023/02/12 02:49:46;;;;;;;25.65;12.93;;;;;;;0.11;42.53;100383.50;5103597;28;20078;-71
2023/02/12 02:52:17;;;;;;;25.85;14.05;;;;;;;0.14;43.00;100373.94;5091671;28;20049;-71
2023/02/12 02:54:48;;;;;;;24.60;12.45;;;;;;;0.20;42.71;100383.16;5092438;28;20028;-71
2023/02/12 02:57:17;;;;;;;26.23;12.77;;;;;;;0.22;43.25;100378.22;5090872;28;20020;-71
2023/02/12 02:59:48;;;;;;;21.77;12.55;;;;;;;0.21;42.65;100374.66;5092125;28;20016;-71
2023/02/12 03:02:28;;;;;;;21.27;11.98;;;;;;;0.21;41.73;100391.16;5092391;28;20406;-71
2023/02/12 03:05:30;;;;;;;25.05;11.82;;;;;;;0.21;41.05;100384.81;5092311;28;20016;-71
2023/02/12 03:08:04;;;;;;;25.80;12.32;;;;;;;0.28;41.18;100391.84;5097974;28;20076;-72
2023/02/12 03:10:44;;;;;;;24.52;12.93;;;;;;;0.41;40.28;100399.00;5104605;28;20103;-72
2023/02/12 03:13:26;;;;;;;34.25;16.52;;;;;;;0.26;40.86;100396.75;5090686;28;20020;-71
2023/02/12 03:16:03;;;;;;;39.97;16.38;;;;;;;0.25;41.05;100391.53;5091951;28;20035;-71
2023/02/12 03:18:48;;;;;;;39.33;17.42;;;;;;;0.12;41.69;100387.13;5092117;28;20521;-71
2023/02/12 03:21:19;;;;;;;32.78;15.52;;;;;;;0.19;40.90;100390.56;5071930;28;20506;-71
2023/02/12 03:24:00;;;;;;;38.22;16.20;;;;;;;0.23;41.44;100393.66;5089985;28;20031;-71
2023/02/12 03:26:37;;;;;;;23.38;13.00;;;;;;;0.09;41.16;100399.44;5090709;28;20024;-71
2023/02/12 03:29:03;;;;;;;18.00;10.20;;;;;;;0.03;41.45;100405.91;5090454;28;20517;-71
2023/02/12 03:31:52;;;;;;;16.40;10.02;;;;;;;0.17;40.72;100405.66;5090116;28;20119;-71
2023/02/12 03:34:42;;;;;;;14.75;8.25;;;;;;;0.02;41.44;100407.00;5090416;28;20024;-71
2023/02/12 03:37:15;;;;;;;19.00;10.57;;;;;;;-0.07;41.53;100403.75;5097762;28;20031;-71
2023/02/12 03:40:10;;;;;;;20.27;10.15;;;;;;;-0.29;42.16;100403.56;5110687;28;20485;-71
2023/02/12 03:42:59;;;;;;;24.63;11.05;;;;;;;-0.27;42.60;100395.91;5092993;28;20032;-71
2023/02/12 03:45:39;;;;;;;18.95;10.52;;;;;;;-0.28;42.54;100396.97;5102711;28;20497;-71
2023/02/12 03:48:13;;;;;;;18.42;9.98;;;;;;;-0.31;42.72;100402.97;5091464;28;20024;-71
2023/02/12 03:50:55;;;;;;;17.30;9.30;;;;;;;-0.33;43.01;100397.69;5090999;28;20532;-71
2023/02/12 03:53:21;;;;;;;16.00;9.75;;;;;;;-0.10;42.52;100395.19;5086850;28;20089;-71
2023/02/12 03:55:52;;;;;;;19.83;10.45;;;;;;;-0.09;42.75;100388.59;5071198;28;20024;-71
2023/02/12 03:58:22;;;;;;;17.70;10.60;;;;;;;-0.08;42.97;100387.53;5079200;28;20020;-71
2023/02/12 04:00:48;;;;;;;17.98;9.95;;;;;;;-0.06;42.50;100388.09;5091281;28;20050;-71
2023/02/12 04:03:14;;;;;;;15.02;9.43;;;;;;;-0.02;42.90;100383.78;5091455;28;20020;-71
2023/02/12 04:05:40;;;;;;;18.30;9.52;;;;;;;0.01;42.50;100386.06;5092536;28;20020;-71
2023/02/12 04:08:10;;;;;;;17.52;10.68;;;;;;;0.09;42.40;100374.66;5111536;28;20057;-71
2023/02/12 04:11:06;;;;;;;16.77;9.48;;;;;;;0.24;42.01;100384.31;5111567;28;20417;-72
2023/02/12 04:13:44;;;;;;;16.63;8.70;;;;;;;0.16;41.98;100388.28;5096483;28;20414;-71
2023/02/12 04:16:22;;;;;;;15.73;8.10;;;;;;;0.09;41.78;100387.59;5091014;28;20028;-71
2023/02/12 04:18:48;;;;;;;18.83;9.57;;;;;;;0.05;42.32;100387.25;5090988;28;20069;-72
2023/02/12 04:21:16;;;;;;;13.43;8.50;;;;;;;0.06;42.47;100393.56;5096212;28;20027;-71
2023/02/12 04:24:06;;;;;;;22.13;10.55;;;;;;;-0.04;42.21;100397.81;5111743;28;20023;-71
2023/02/12 04:26:44;;;;;;;18.65;10.05;;;;;;;0.07;43.04;100400.78;5111321;28;20026;-71
2023/02/12 04:29:13;;;;;;;19.48;11.50;;;;;;;0.08;42.87;100397.75;5110127;28;20152;-71
2023/02/12 04:31:48;;;;;;;18.90;9.98;;;;;;;0.00;42.61;100395.41;5111291;28;20508;-71
2023/02/12 04:34:26;;;;;;;17.02;9.27;;;;;;;-0.02;42.55;100403.88;5104642;28;20024;-71
2023/02/12 04:37:15;;;;;;;15.38;8.75;;;;;;;-0.07;42.21;100394.69;5101011;28;20038;-71
2023/02/12 04:39:42;;;;;;;15.90;9.50;;;;;;;-0.03;42.17;100395.88;5111450;28;20511;-71
2023/02/12 04:42:08;;;;;;;17.67;9.10;;;;;;;-0.13;42.20;100401.13;5110078;28;20429;-71
2023/02/12 04:44:38;;;;;;;14.85;8.45;;;;;;;-0.19;42.96;100402.94;5110080;28;20030;-71
2023/02/12 04:47:03;;;;;;;12.77;7.88;;;;;;;-0.06;41.67;100404.63;5111214;28;20530;-71
2023/02/12 04:49:28;;;;;;;13.27;6.78;;;;;;;-0.02;41.20;100403.88;5098433;28;20131;-71
2023/02/12 04:51:54;;;;;;;13.82;7.85;;;;;;;0.13;40.97;100408.91;5088799;28;20043;-71
2023/02/12 04:54:22;;;;;;;12.65;6.85;;;;;;;0.11;41.18;100413.78;5090856;28;20023;-71
2023/02/12 04:56:48;;;;;;;13.13;7.95;;;;;;;0.21;40.61;100415.94;5090745;28;20020;-71
2023/02/12 04:59:14;;;;;;;22.95;10.05;;;;;;;0.40;41.08;100411.09;5089556;28;20533;-71
2023/02/12 05:01:41;;;;;;;16.58;8.48;;;;;;;0.45;41.29;100418.63;5089251;28;20054;-71
2023/02/12 05:04:07;;;;;;;16.15;8.48;;;;;;;0.41;41.26;100420.19;5090832;28;20019;-71
2023/02/12 05:06:37;;;;;;;16.88;8.57;;;;;;;0.41;41.84;100407.25;5109323;28;20043;-71
2023/02/12 05:09:05;;;;;;;14.02;8.23;;;;;;;0.45;41.21;100409.50;5101223;28;20020;-71
2023/02/12 05:11:30;;;;;;;20.45;9.80;;;;;;;0.44;41.95;100411.44;5094462;28;20020;-71
2023/02/12 05:13:56;;;;;;;19.30;10.05;;;;;;;0.40;42.38;100405.59;5094527;28;20409;-71
2023/02/12 05:16:22;;;;;;;22.55;11.80;;;;;;;0.51;42.24;100412.13;5094317;28;20038;-71
2023/02/12 05:18:48;;;;;;;22.55;11.10;;;;;;;0.46;42.50;100414.78;5093995;28;20020;-71
2023/02/12 05:21:14;;;;;;;21.95;11.55;;;;;;;0.66;42.44;100413.50;5093410;28;20058;-71
2023/02/12 05:23:40;;;;;;;20.50;12.18;;;;;;;0.68;42.16;100422.38;5094251;28;20020;-72
2023/02/12 05:26:11;;;;;;;25.63;12.38;;;;;;;0.73;42.12;100419.72;5092904;28;20047;-71
2023/02/12 05:28:37;;;;;;;22.15;13.07;;;;;;;0.94;41.38;100420.09;5094154;28;20020;-71
2023/02/12 05:31:07;;;;;;;24.13;11.85;;;;;;;1.00;41.91;100412.78;5094028;28;20051;-71
2023/02/12 05:33:33;;;;;;;20.52;10.90;;;;;;;1.25;41.75;100427.00;5093885;28;20058;-71
2023/02/12 05:36:04;;;;;;;17.88;10.40;;;;;;;1.39;42.01;100429.41;5109981;28;20043;-72
2023/02/12 05:38:30;;;;;;;23.88;11.40;;;;;;;1.44;41.71;100447.97;5113119;28;20406;-71
2023/02/12 05:41:01;;;;;;;22.52;12.07;;;;;;;1.44;41.88;100445.22;5103470;28;20028;-72
2023/02/12 05:43:26;;;;;;;21.67;12.25;;;;;;;1.52;42.29;100451.16;5092593;28;20437;-71
2023/02/12 05:45:52;;;;;;;40.78;17.73;;;;;;;1.61;42.47;100456.25;5090791;28;20039;-72
2023/02/12 05:48:17;;;;;;;25.45;14.18;;;;;;;1.59;42.47;100461.19;5092908;28;20039;-72
2023/02/12 05:50:43;;;;;;;28.30;13.70;;;;;;;1.59;43.00;100459.25;5091897;28;20498;-72
2023/02/12 05:53:08;;;;;;;31.58;15.52;;;;;;;1.57;43.61;100466.09;5098550;28;20486;-72
2023/02/12 05:55:34;;;;;;;38.60;18.02;;;;;;;1.59;43.83;100469.47;5114210;28;20379;-72
2023/02/12 05:57:59;;;;;;;67.22;29.17;;;;;;;1.62;44.42;100477.22;5112567;28;20046;-72
2023/02/12 06:00:25;;;;;;;77.28;35.30;;;;;;;1.59;44.69;100463.94;5107709;28;20032;-72
2023/02/12 06:02:50;;;;;;;41.83;22.17;;;;;;;1.72;44.43;100454.47;5099592;28;20023;-72
2023/02/12 06:05:16;;;;;;;37.53;16.90;;;;;;;1.85;43.84;100458.84;5105269;28;20023;-72
2023/02/12 06:07:41;;;;;;;33.58;15.55;;;;;;;1.99;43.41;100451.88;5075096;28;20024;-71
2023/02/12 06:10:07;;;;;;;33.53;17.38;;;;;;;2.11;42.85;100465.53;5097800;28;20060;-75
2023/02/12 06:12:33;;;;;;;29.20;15.00;;;;;;;2.16;42.93;100462.88;5085064;28;20371;-73
2023/02/12 06:14:58;;;;;;;32.90;15.45;;;;;;;2.21;42.85;100473.16;5089895;28;20031;-72
2023/02/12 06:17:24;;;;;;;25.58;14.32;;;;;;;2.22;42.85;100472.06;5074109;28;20533;-70
2023/02/12 06:19:49;;;;;;;25.67;13.93;;;;;;;2.21;42.30;100465.69;5085513;28;20085;-72
2023/02/12 06:22:14;;;;;;;27.08;14.73;;;;;;;2.26;42.17;100461.34;5091073;28;20093;-71
2023/02/12 06:24:40;;;;;;;27.65;14.55;;;;;;;2.23;42.11;100470.97;5090641;28;20032;-70
2023/02/12 06:27:05;;;;;;;27.52;13.60;;;;;;;2.32;41.88;100463.06;5079444;28;20038;-71
2023/02/12 06:29:31;;;;;;;43.78;21.38;;;;;;;2.37;41.32;100469.50;5109890;28;20028;-71
2023/02/12 06:31:56;;;;;;;51.53;22.60;;;;;;;2.34;42.06;100464.50;5087077;28;20040;-70
2023/02/12 06:34:22;;;;;;;42.08;19.20;;;;;;;2.42;42.44;100474.25;5088078;28;20057;-71
2023/02/12 06:36:47;;;;;;;29.40;15.32;;;;;;;2.52;42.61;100474.41;5097578;28;20020;-72
2023/02/12 06:39:15;;;;;;;28.08;14.68;;;;;;;2.58;43.27;100480.81;5092919;28;20051;-73
2023/02/12 06:41:40;;;;;;;43.00;18.90;;;;;;;2.71;43.18;100476.81;5104518;28;20059;-72
2023/02/12 06:44:07;;;;;;;30.55;14.38;;;;;;;2.74;43.36;100484.63;5096666;28;20066;-71
2023/02/12 06:46:32;;;;;;;27.40;15.95;;;;;;;2.73;43.42;100476.59;5105100;28;20023;-72
2023/02/12 06:48:59;;;;;;;42.13;17.45;;;;;;;2.81;43.47;100484.44;5102790;28;20032;-72
2023/02/12 06:51:26;;;;;;;30.10;16.58;;;;;;;2.83;44.00;100487.75;5086335;28;20036;-70
2023/02/12 06:53:54;;;;;;;32.17;19.05;;;;;;;2.79;43.95;100486.63;5094396;28;20429;-71
2023/02/12 06:56:20;;;;;;;40.92;19.05;;;;;;;2.80;43.91;100482.75;5091165;28;20027;-76
2023/02/12 06:58:54;;;;;;;35.53;17.50;;;;;;;2.80;44.25;100486.34;5097684;28;20140;-73
2023/02/12 07:01:23;;;;;;;26.75;15.32;;;;;;;2.76;44.58;100489.88;5101875;28;20027;-72
2023/02/12 07:04:06;;;;;;;27.27;16.05;;;;;;;2.72;45.02;100486.81;5100649;28;20029;-71
2023/02/12 07:06:34;;;;;;;35.95;18.85;;;;;;;2.73;45.49;100493.16;5087701;28;20021;-71
2023/02/12 07:09:00;;;;;;;34.13;19.08;;;;;;;2.65;45.90;100478.72;5088155;28;20069;-71
2023/02/12 07:11:28;;;;;;;41.55;21.63;;;;;;;2.73;45.82;100482.94;5083478;28;20515;-73
2023/02/12 07:13:54;;;;;;;43.13;21.67;;;;;;;2.77;45.72;100483.25;5095132;28;20055;-73
2023/02/12 07:16:20;;;;;;;40.08;19.73;;;;;;;2.77;45.57;100489.63;5090431;28;20062;-70
2023/02/12 07:18:46;;;;;;;45.38;21.52;;;;;;;2.83;45.60;100492.44;5086700;28;20028;-71
2023/02/12 07:21:14;;;;;;;49.42;23.80;;;;;;;2.83;45.70;100496.06;5092624;28;20034;-71
2023/02/12 07:23:39;;;;;;;48.67;23.10;;;;;;;2.87;45.29;100483.38;5093725;28;20028;-73
2023/02/12 07:26:10;;;;;;;50.55;25.30;;;;;;;2.92;45.63;100494.50;5091000;28;20063;-72
2023/02/12 07:28:35;;;;;;;59.33;27.70;;;;;;;2.98;45.13;100489.03;5090563;28;20497;-73
2023/02/12 07:31:19;;;;;;;45.65;21.27;;;;;;;3.06;44.51;100481.09;5102841;28;20164;-72
2023/02/12 07:33:45;;;;;;;40.35;22.30;;;;;;;3.13;44.86;100483.66;5090632;28;20528;-73
2023/02/12 07:36:16;;;;;;;37.67;20.75;;;;;;;3.13;44.67;100491.13;5085370;28;20059;-75
2023/02/12 07:38:42;;;;;;;53.15;24.70;;;;;;;3.18;44.53;100486.50;5094462;28;20024;-71
2023/02/12 07:41:11;;;;;;;44.28;19.95;;;;;;;3.32;43.87;100488.84;5087764;28;20096;-71
2023/02/12 07:43:42;;;;;;;43.78;20.45;;;;;;;3.41;44.05;100492.81;5089897;28;20690;-69
2023/02/12 07:46:15;;;;;;;41.95;20.33;;;;;;;3.55;43.79;100497.91;5092668;28;20107;-69
2023/02/12 07:48:40;;;;;;;32.83;18.27;;;;;;;3.67;44.17;100492.19;5077306;28;20489;-70
2023/02/12 07:51:08;;;;;;;35.08;18.23;;;;;;;3.71;42.67;100491.38;5096094;28;20061;-71
2023/02/12 07:53:34;;;;;;;41.58;20.05;;;;;;;3.75;43.29;100497.25;5089042;28;20517;-70
2023/02/12 07:56:12;;;;;;;37.83;18.92;;;;;;;3.80;43.08;100486.19;5098123;28;20023;-70
2023/02/12 07:58:39;;;;;;;39.30;21.02;;;;;;;3.81;43.15;100507.28;5090663;28;20131;-72
2023/02/12 08:01:20;;;;;;;44.97;20.92;;;;;;;3.85;43.64;100497.31;5108777;28;20092;-69
2023/02/12 08:03:46;;;;;;;43.80;19.48;;;;;;;3.84;43.87;100505.88;5111007;28;20019;-70
2023/02/12 08:06:15;;;;;;;43.47;21.95;;;;;;;3.87;44.71;100513.69;5095385;28;20512;-70
2023/02/12 08:08:41;;;;;;;34.80;16.52;;;;;;;3.79;45.98;100506.66;5101953;28;20058;-69
2023/02/12 08:11:08;;;;;;;51.22;17.20;;;;;;;3.77;47.37;100506.09;5100133;28;20028;-65
2023/02/12 08:13:35;;;;;;;36.83;18.55;;;;;;;3.71;48.03;100496.94;5089350;28;20490;-66
2023/02/12 08:16:02;;;;;;;42.65;20.13;;;;;;;3.71;48.20;100505.22;5090334;28;20486;-66
2023/02/12 08:18:30;;;;;;;50.45;19.23;;;;;;;3.77;47.98;100503.34;5088287;28;20464;-66
2023/02/12 08:21:07;;;;;;;29.75;16.38;;;;;;;3.89;47.85;100500.41;5087797;28;20028;-71
2023/02/12 08:23:33;;;;;;;30.20;16.80;;;;;;;3.97;47.85;100524.81;5088182;28;20028;-70
2023/02/12 08:26:09;;;;;;;28.92;14.95;;;;;;;3.99;47.90;100519.00;5090027;28;20020;-72
2023/02/12 08:28:37;;;;;;;35.22;17.15;;;;;;;3.98;48.18;100518.19;5088618;28;20494;-71
2023/02/12 08:31:04;;;;;;;26.70;15.63;;;;;;;4.00;48.95;100529.00;5088950;28;20035;-70
2023/02/12 08:33:30;;;;;;;33.40;17.02;;;;;;;3.92;49.35;100519.25;5088628;28;20462;-69
2023/02/12 08:36:14;;;;;;;47.10;18.60;;;;;;;3.83;49.93;100520.81;5094204;28;20061;-70
2023/02/12 08:38:41;;;;;;;29.52;16.60;;;;;;;3.88;50.52;100524.47;5098559;28;20031;-70
2023/02/12 08:41:12;;;;;;;38.78;18.20;;;;;;;3.88;50.93;100534.72;5105685;28;20151;-71
2023/02/12 08:43:39;;;;;;;46.38;21.92;;;;;;;3.81;51.54;100528.56;5094359;28;20035;-71
2023/02/12 08:46:11;;;;;;;34.80;18.05;;;;;;;3.79;51.55;100524.13;5093016;28;20414;-72
2023/02/12 08:48:38;;;;;;;34.97;17.20;;;;;;;3.87;52.58;100539.41;5094317;28;20028;-69
2023/02/12 08:51:06;;;;;;;38.72;17.98;;;;;;;3.90;52.70;100546.38;5091320;28;20040;-71
2023/02/12 08:53:32;;;;;;;38.25;21.00;;;;;;;3.86;52.88;100543.28;5088657;28;20414;-69
2023/02/12 08:55:57;;;;;;;31.35;17.63;;;;;;;3.92;52.64;100541.38;5090863;28;20107;-73
2023/02/12 08:58:23;;;;;;;30.00;17.88;;;;;;;4.00;52.98;100549.22;5088504;28;20105;-75
2023/02/12 09:00:48;;;;;;;33.90;15.88;;;;;;;3.94;52.84;100539.19;5088324;28;20385;-77
2023/02/12 09:03:14;;;;;;;31.23;17.40;;;;;;;4.00;52.65;100549.22;5089145;28;20021;-74
2023/02/12 09:05:40;;;;;;;27.70;16.27;;;;;;;4.11;52.92;100554.84;5090730;28;20402;-71
2023/02/12 09:08:06;;;;;;;33.05;17.58;;;;;;;4.16;52.41;100557.63;5092284;28;20070;-71
2023/02/12 09:10:32;;;;;;;27.17;15.27;;;;;;;4.11;52.13;100560.38;5092225;28;20115;-71
2023/02/12 09:12:57;;;;;;;27.42;14.75;;;;;;;4.21;52.20;100555.75;5091392;28;20039;-71
2023/02/12 09:15:23;;;;;;;28.90;16.10;;;;;;;4.40;50.95;100562.78;5102108;28;20030;-71
2023/02/12 09:17:48;;;;;;;35.00;18.65;;;;;;;4.67;51.13;100575.69;5089489;28;20031;-76
2023/02/12 09:20:14;;;;;;;45.03;25.02;;;;;;;4.96;50.07;100572.53;5091890;28;20023;-72
2023/02/12 09:22:40;;;;;;;23.20;13.38;;;;;;;5.32;48.21;100572.69;5089515;28;20024;-71
2023/02/12 09:25:06;;;;;;;30.88;14.85;;;;;;;5.39;48.04;100573.22;5090814;28;20031;-71
2023/02/12 09:27:31;;;;;;;23.15;14.35;;;;;;;5.60;47.49;100578.84;5105526;28;20450;-71
2023/02/12 09:29:56;;;;;;;19.92;11.77;;;;;;;5.65;47.08;100581.63;5096843;28;20032;-71
2023/02/12 09:32:22;;;;;;;27.63;14.70;;;;;;;5.75;46.77;100576.09;5094012;28;20024;-73
2023/02/12 09:34:47;;;;;;;32.85;17.42;;;;;;;5.76;46.49;100574.16;5091644;28;20567;-74
2023/02/12 09:37:13;;;;;;;22.77;13.85;;;;;;;5.82;46.36;100559.16;5093854;28;20356;-72
2023/02/12 09:39:39;;;;;;;29.80;15.35;;;;;;;5.81;46.50;100567.78;5091953;28;20050;-71
2023/02/12 09:42:07;;;;;;;24.83;14.02;;;;;;;5.63;46.24;100561.63;5093244;28;20028;-72
2023/02/12 09:45:11;;;;;;;31.20;15.80;;;;;;;5.87;46.42;100561.94;5090613;28;20019;-71
2023/02/12 09:48:09;;;;;;;37.83;19.52;;;;;;;5.98;44.38;100557.22;5110836;28;20402;-71
2023/02/12 09:50:35;;;;;;;32.58;20.08;;;;;;;6.00;44.42;100560.56;5037302;28;20043;-71
2023/02/12 09:53:02;;;;;;;27.90;15.48;;;;;;;6.07;44.05;100565.03;5091981;28;20032;-78
2023/02/12 09:55:33;;;;;;;31.05;16.60;;;;;;;6.23;43.62;100550.03;5098954;28;20058;-75
2023/02/12 09:58:03;;;;;;;32.22;17.17;;;;;;;6.33;43.36;100543.59;5090057;28;20502;-71
2023/02/12 10:00:30;;;;;;;25.80;12.95;;;;;;;6.02;43.82;100536.13;5082086;28;20039;-71
2023/02/12 10:03:12;;;;;;;20.55;13.38;;;;;;;6.17;43.69;100540.03;5106645;28;20035;-71
2023/02/12 10:05:44;;;;;;;22.92;13.82;;;;;;;6.40;42.92;100540.56;5103053;28;20060;-71
2023/02/12 10:08:19;;;;;;;27.73;16.15;;;;;;;6.64;43.11;100542.75;5092346;28;20032;-71
2023/02/12 10:11:33;;;;;;;31.45;17.15;;;;;;;6.87;42.79;100544.03;5091234;28;20028;-71
2023/02/12 10:14:26;;;;;;;30.52;17.35;;;;;;;6.93;42.86;100534.53;5041284;28;20521;-71
2023/02/12 10:17:00;;;;;;;32.88;16.73;;;;;;;6.93;42.56;100530.94;5082423;28;20401;-71
2023/02/12 10:19:31;;;;;;;32.90;17.88;;;;;;;6.90;42.35;100528.75;5110759;28;20058;-71
2023/02/12 10:22:25;;;;;;;22.98;14.40;;;;;;;6.87;42.03;100541.25;5108028;28;20095;-71
2023/02/12 10:25:08;;;;;;;24.02;13.32;;;;;;;6.51;42.28;100542.19;5099928;28;20147;-71
2023/02/12 10:27:39;;;;;;;28.02;15.68;;;;;;;6.53;42.55;100534.41;5101327;28;20426;-72
2023/02/12 10:30:45;;;;;;;26.15;15.13;;;;;;;6.91;42.17;100535.97;5105822;28;20024;-71
2023/02/12 10:33:29;;;;;;;22.98;14.25;;;;;;;6.61;42.26;100538.56;5081742;28;20130;-71
2023/02/12 10:36:01;;;;;;;23.08;14.52;;;;;;;6.66;42.11;100534.94;5092806;28;20031;-71
2023/02/12 10:38:32;;;;;;;26.33;14.15;;;;;;;6.80;41.70;100537.94;5103492;28;20032;-72
2023/02/12 10:41:00;;;;;;;24.35;13.75;;;;;;;6.89;41.89;100530.69;5079205;28;20035;-71
2023/02/12 10:43:27;;;;;;;21.20;13.68;;;;;;;6.85;41.59;100541.53;5090433;28;20481;-72
2023/02/12 10:45:52;;;;;;;25.85;13.82;;;;;;;6.60;42.38;100537.72;5091569;28;20478;-72
2023/02/12 10:48:21;;;;;;;24.90;13.63;;;;;;;6.63;41.85;100536.31;5099587;28;20092;-72
2023/02/12 10:51:11;;;;;;;22.33;12.90;;;;;;;6.49;42.28;100547.19;5089707;28;20089;-73
2023/02/12 10:53:41;;;;;;;23.13;13.13;;;;;;;6.46;42.15;100547.75;5090113;28;20031;-71
2023/02/12 10:56:19;;;;;;;23.25;11.82;;;;;;;6.62;42.00;100554.13;5090889;28;20028;-72
2023/02/12 10:58:53;;;;;;;22.00;14.10;;;;;;;6.57;42.21;100548.56;5099788;28;20102;-72
2023/02/12 11:01:30;;;;;;;23.48;14.43;;;;;;;6.82;41.21;100552.41;5090289;28;20081;-75
2023/02/12 11:03:58;;;;;;;29.52;15.50;;;;;;;6.92;41.03;100545.97;5090157;28;20028;-71
2023/02/12 11:06:29;;;;;;;18.85;12.27;;;;;;;6.82;41.04;100549.63;5085602;28;20073;-72
2023/02/12 11:08:56;;;;;;;22.20;13.93;;;;;;;7.10;41.19;100539.75;5082098;28;20512;-71
2023/02/12 11:11:37;;;;;;;27.00;13.27;;;;;;;7.14;40.86;100551.16;5084783;28;20501;-71
2023/02/12 11:14:16;;;;;;;28.98;16.95;;;;;;;7.42;40.75;100554.34;5077875;28;20020;-71
2023/02/12 11:16:54;;;;;;;22.45;12.82;;;;;;;7.43;41.45;100561.59;5089317;28;20106;-71
2023/02/12 11:19:22;;;;;;;23.45;13.13;;;;;;;7.20;41.49;100563.94;5087770;28;20020;-71
2023/02/12 11:21:49;;;;;;;22.50;13.75;;;;;;;7.33;41.26;100570.81;5086622;28;20074;-69
2023/02/12 11:24:35;;;;;;;24.33;14.88;;;;;;;7.50;40.81;100580.78;5089533;28;20026;-71
2023/02/12 11:27:15;;;;;;;23.30;15.02;;;;;;;7.53;41.28;100577.41;5081289;28;20024;-70
2023/02/12 11:29:46;;;;;;;;;;;;;;;7.41;40.79;100580.50;5087179;28;20020;-71
2023/02/12 11:32:17;;;;;;;24.65;14.65;;;;;;;7.06;40.73;100577.63;5083625;28;19967;-69
2023/02/12 11:34:43;;;;;;;25.73;15.93;;;;;;;7.08;41.61;100575.38;5079992;28;20038;-69
2023/02/12 11:37:18;;;;;;;32.17;17.10;;;;;;;7.21;41.46;100570.31;5083940;28;20032;-73